| time (UTC) | temp C | wind direction | speed KPH | gust KPH | rain 1hr cm | rain 24hr cm | rain mn cm | humidity % | barometer mb |
| 20260507070230 | 13 | 139 | 4.8 | 6.4 | 0.00 | 0.00 | 0.00 | 94 | |
| 20260507065727 | 13 | 95 | 3.2 | 9.7 | 0.00 | 0.00 | 0.00 | 94 | |
| 20260507065223 | 13 | 102 | 6.4 | 8.0 | 0.00 | 0.00 | 0.00 | 95 | |
| 20260507064720 | 13 | 135 | 6.4 | 9.7 | 0.00 | 0.00 | 0.00 | 94 | |
| 20260507064215 | 13 | 111 | 6.4 | 6.4 | 0.00 | 0.00 | 0.00 | 95 | |
| 20260507063711 | 13 | 106 | 3.2 | 8.0 | 0.00 | 0.00 | 0.00 | 94 | |
| 20260507063208 | 13 | 131 | 1.6 | 9.7 | 0.00 | 0.00 | 0.00 | 95 | |
| 20260507062705 | 13 | 59 | 3.2 | 6.4 | 0.00 | 0.00 | 0.00 | 95 | |
| 20260507062202 | 13 | 100 | 3.2 | 4.8 | 0.00 | 0.00 | 0.00 | 96 | |
| 20260507061700 | 13 | 114 | 3.2 | 8.0 | 0.00 | 0.00 | 0.00 | 96 | |
| 20260507061158 | 13 | 147 | 6.4 | 8.0 | 0.00 | 0.00 | 0.00 | 96 | |
| 20260507060656 | 14 | 171 | 16.1 | 17.7 | 0.00 | 0.00 | 0.00 | 96 | |
| 20260507060152 | 14 | 114 | 3.2 | 4.8 | 0.00 | 0.00 | 0.00 | 96 | |
| 20260507055648 | 14 | 160 | 6.4 | 14.5 | 0.00 | 0.00 | 0.00 | 96 | |
| 20260507055144 | 14 | 113 | 3.2 | 3.2 | 0.00 | 0.00 | 0.00 | 96 | |
| 20260507054640 | 14 | 115 | 1.6 | 3.2 | 0.00 | 0.00 | 0.00 | 96 | |
| 20260507054137 | 15 | 89 | 1.6 | 3.2 | 0.00 | 0.00 | 0.00 | 96 | |
| 20260507053635 | 15 | 73 | 3.2 | 3.2 | 0.00 | 0.00 | 0.00 | 95 | |
| 20260507053133 | 15 | 79 | 3.2 | 6.4 | 0.00 | 0.00 | 0.00 | 94 | |
| 20260507052631 | 15 | 75 | 0.0 | 4.8 | 0.00 | 0.00 | 0.00 | 93 | |
| 20260507052127 | 15 | 125 | 9.7 | 9.7 | 0.00 | 0.00 | 0.00 | 92 | |
| 20260507051624 | 15 | 192 | 4.8 | 6.4 | 0.00 | 0.00 | 0.00 | 91 | |
| 20260507051121 | 16 | 162 | 3.2 | 6.4 | 0.00 | 0.00 | 0.00 | 92 | |
| 20260507050617 | 16 | 85 | 1.6 | 6.4 | 0.00 | 0.00 | 0.00 | 90 | |
| 20260507050109 | 17 | 60 | 3.2 | 3.2 | 0.00 | 0.00 | 0.00 | 88 | |
| 20260507045605 | 17 | 148 | 0.0 | 1.6 | 0.00 | 0.00 | 0.00 | 86 | |
| 20260507045103 | 17 | 86 | 4.8 | 11.3 | 0.00 | 0.00 | 0.00 | 82 | |
| 20260507044559 | 17 | 149 | 6.4 | 11.3 | 0.00 | 0.00 | 0.00 | 82 | |
| 20260507044056 | 17 | 120 | 1.6 | 6.4 | 0.00 | 0.00 | 0.00 | 82 | |
| 20260507043552 | 17 | 142 | 4.8 | 4.8 | 0.00 | 0.00 | 0.00 | 82 | |
| 20260507043049 | 17 | 131 | 3.2 | 8.0 | 0.00 | 0.00 | 0.00 | 81 | |
| 20260507042545 | 17 | 158 | 1.6 | 4.8 | 0.00 | 0.00 | 0.00 | 80 | |
| 20260507042040 | 17 | 148 | 3.2 | 4.8 | 0.00 | 0.00 | 0.00 | 80 | |
| 20260507041538 | 18 | 114 | 0.0 | 3.2 | 0.00 | 0.00 | 0.00 | 80 | |
| 20260507041035 | 18 | 154 | 3.2 | 6.4 | 0.00 | 0.00 | 0.00 | 78 | |
| 20260507040531 | 18 | 150 | 1.6 | 6.4 | 0.00 | 0.00 | 0.00 | 79 | |
| 20260507040027 | 18 | 173 | 4.8 | 6.4 | 0.00 | 0.00 | 0.00 | 78 | |
| 20260507035524 | 18 | 137 | 4.8 | 8.0 | 0.00 | 0.00 | 0.00 | 78 | |
| 20260507035020 | 18 | 147 | 1.6 | 9.7 | 0.00 | 0.00 | 0.00 | 78 | |
| 20260507034517 | 18 | 159 | 4.8 | 8.0 | 0.00 | 0.00 | 0.00 | 81 | |
| 20260507034015 | 18 | 131 | 6.4 | 12.9 | 0.00 | 0.00 | 0.00 | 83 | |
| 20260507033513 | 18 | 138 | 6.4 | 6.4 | 0.00 | 0.00 | 0.00 | 85 | |
| 20260507033010 | 18 | 140 | 6.4 | 14.5 | 0.00 | 0.00 | 0.00 | 87 | |
| 20260507032506 | 18 | 157 | 6.4 | 9.7 | 0.00 | 0.00 | 0.00 | 93 | |
| 20260507032003 | 17 | 113 | 0.0 | 1.6 | 0.00 | 0.00 | 0.00 | 95 | |
| 20260507031459 | 17 | 89 | 0.0 | 1.6 | 0.00 | 0.00 | 0.00 | 95 | |
| 20260507030956 | 18 | 89 | 0.0 | 1.6 | 0.00 | 0.00 | 0.00 | 95 | |
| 20260507030453 | 17 | 89 | 0.0 | 3.2 | 0.00 | 0.00 | 0.00 | 94 | |
| 20260507025950 | 17 | 124 | 3.2 | 4.8 | 0.00 | 0.00 | 0.00 | 95 | |
| 20260507025447 | 17 | 173 | 0.0 | 3.2 | 0.00 | 0.00 | 0.00 | 95 | |
| 20260507024945 | 17 | 136 | 1.6 | 3.2 | 0.00 | 0.00 | 0.00 | 96 | |
| 20260507024442 | 17 | 62 | 1.6 | 3.2 | 0.00 | 0.00 | 0.00 | 95 | |
| 20260507023938 | 17 | 63 | 1.6 | 3.2 | 0.00 | 0.00 | 0.00 | 95 | |
| 20260507023435 | 17 | 67 | 3.2 | 3.2 | 0.00 | 0.00 | 0.00 | 95 | |
| 20260507022932 | 17 | 109 | 3.2 | 3.2 | 0.00 | 0.00 | 0.00 | 95 | |
| 20260507022429 | 17 | 89 | 1.6 | 1.6 | 0.00 | 0.00 | 0.00 | 95 | |
| 20260507021925 | 17 | 62 | 3.2 | 3.2 | 0.00 | 0.00 | 0.00 | 95 | |
| 20260507021420 | 17 | 67 | 1.6 | 3.2 | 0.00 | 0.00 | 0.00 | 95 | |
| 20260507020918 | 17 | 72 | 1.6 | 3.2 | 0.00 | 0.00 | 0.00 | 95 | |
| 20260507020415 | 17 | 76 | 1.6 | 3.2 | 0.00 | 0.00 | 0.00 | 95 | |
| 20260507015912 | 17 | 106 | 3.2 | 3.2 | 0.00 | 0.00 | 0.00 | 95 | |
| 20260507015410 | 17 | 79 | 1.6 | 3.2 | 0.00 | 0.00 | 0.00 | 94 | |
| 20260507014907 | 17 | 57 | 1.6 | 3.2 | 0.00 | 0.00 | 0.00 | 94 | |
| 20260507014403 | 17 | 71 | 1.6 | 3.2 | 0.00 | 0.00 | 0.00 | 94 | |
| 20260507013859 | 17 | 52 | 3.2 | 3.2 | 0.00 | 0.00 | 0.00 | 94 | |
| 20260507013356 | 17 | 55 | 3.2 | 3.2 | 0.00 | 0.00 | 0.00 | 94 | |
| 20260507012854 | 17 | 63 | 3.2 | 3.2 | 0.00 | 0.00 | 0.00 | 94 | |
| 20260507012349 | 17 | 61 | 3.2 | 3.2 | 0.00 | 0.00 | 0.00 | 93 | |
| 20260507011846 | 17 | 65 | 1.6 | 3.2 | 0.00 | 0.00 | 0.00 | 93 | |
| 20260507011344 | 17 | 81 | 3.2 | 3.2 | 0.00 | 0.00 | 0.00 | 92 | |
| 20260507010838 | 17 | 53 | 3.2 | 3.2 | 0.00 | 0.00 | 0.00 | 92 | |
| 20260507010334 | 17 | 93 | 1.6 | 3.2 | 0.00 | 0.00 | 0.00 | 93 | |
| 20260507005831 | 18 | 59 | 1.6 | 3.2 | 0.00 | 0.00 | 0.00 | 92 | |
| 20260507005327 | 18 | 89 | 0.0 | 1.6 | 0.00 | 0.00 | 0.00 | 92 | |
| 20260507004819 | 18 | 89 | 0.0 | 3.2 | 0.00 | 0.00 | 0.00 | 92 | |
| 20260507004316 | 18 | 87 | 1.6 | 3.2 | 0.00 | 0.00 | 0.00 | 91 | |
| 20260507003813 | 18 | 52 | 3.2 | 3.2 | 0.00 | 0.00 | 0.00 | 92 | |
| 20260507003308 | 18 | 75 | 1.6 | 1.6 | 0.00 | 0.00 | 0.00 | 91 | |
| 20260507002803 | 18 | 75 | 1.6 | 3.2 | 0.00 | 0.00 | 0.00 | 91 | |
| 20260507002259 | 18 | 40 | 3.2 | 3.2 | 0.00 | 0.00 | 0.00 | 91 | |
| 20260507001751 | 18 | 49 | 3.2 | 3.2 | 0.00 | 0.00 | 0.00 | 90 | |
| 20260507001249 | 18 | 45 | 3.2 | 3.2 | 0.00 | 0.00 | 0.00 | 90 | |
| 20260507000745 | 19 | 54 | 1.6 | 3.2 | 0.00 | 0.00 | 0.00 | 89 | |
| 20260507000240 | 19 | 53 | 1.6 | 3.2 | 0.00 | 0.00 | 0.00 | 88 | |
| 20260506235738 | 19 | 49 | 3.2 | 3.2 | 0.00 | 0.00 | 0.00 | 87 | |
| 20260506235233 | 19 | 62 | 1.6 | 3.2 | 0.00 | 0.00 | 0.00 | 88 | |
| 20260506234730 | 19 | 69 | 0.0 | 3.2 | 0.00 | 0.00 | 0.00 | 87 | |
| 20260506234227 | 19 | 54 | 3.2 | 3.2 | 0.00 | 0.00 | 0.00 | 88 | |
| 20260506233725 | 19 | 47 | 0.0 | 3.2 | 0.00 | 0.00 | 0.00 | 86 | |
| 20260506233221 | 20 | 57 | 1.6 | 1.6 | 0.00 | 0.00 | 0.00 | 85 | |
| 20260506232718 | 20 | 44 | 0.0 | 1.6 | 0.00 | 0.00 | 0.00 | 85 | |
| 20260506232212 | 20 | 60 | 1.6 | 1.6 | 0.00 | 0.00 | 0.00 | 85 | |
| 20260506231710 | 20 | 89 | 0.0 | 3.2 | 0.00 | 0.00 | 0.00 | 85 | |
| 20260506231209 | 20 | 73 | 0.0 | 1.6 | 0.00 | 0.00 | 0.00 | 86 | |
| 20260506230704 | 20 | 69 | 0.0 | 3.2 | 0.00 | 0.00 | 0.00 | 84 | |
| 20260506230201 | 20 | 134 | 3.2 | 4.8 | 0.00 | 0.00 | 0.00 | 84 | |
| 20260506225658 | 20 | 80 | 0.0 | 1.6 | 0.00 | 0.00 | 0.00 | 84 | |
| 20260506225154 | 20 | 89 | 0.0 | 3.2 | 0.00 | 0.00 | 0.00 | 85 | |
| 20260506224651 | 20 | 77 | 1.6 | 3.2 | 0.00 | 0.00 | 0.00 | 84 | |
| 20260506224148 | 20 | 89 | 0.0 | 1.6 | 0.00 | 0.00 | 0.00 | 83 | |
| 20260506223645 | 20 | 66 | 0.0 | 1.6 | 0.00 | 0.00 | 0.00 | 83 | |
| 20260506223140 | 20 | 44 | 3.2 | 4.8 | 0.00 | 0.00 | 0.00 | 82 | |
| 20260506222638 | 20 | 150 | 3.2 | 4.8 | 0.00 | 0.00 | 0.00 | 82 | |
| 20260506222133 | 20 | 41 | 1.6 | 3.2 | 0.00 | 0.00 | 0.00 | 83 | |
| 20260506221632 | 20 | 97 | 1.6 | 1.6 | 0.00 | 0.00 | 0.00 | 82 | |
| 20260506221130 | 20 | 58 | 3.2 | 3.2 | 0.00 | 0.00 | 0.00 | 82 | |
| 20260506220626 | 20 | 42 | 0.0 | 1.6 | 0.00 | 0.00 | 0.00 | 81 | |
| 20260506220121 | 20 | 193 | 3.2 | 4.8 | 0.00 | 0.00 | 0.00 | 82 | |
| 20260506215618 | 21 | 76 | 0.0 | 3.2 | 0.00 | 0.00 | 0.00 | 82 | |
| 20260506215113 | 21 | 50 | 0.0 | 3.2 | 0.00 | 0.00 | 0.00 | 81 | |
| 20260506214611 | 21 | 86 | 0.0 | 3.2 | 0.00 | 0.00 | 0.00 | 81 | |
| 20260506214108 | 21 | 130 | 0.0 | 3.2 | 0.00 | 0.00 | 0.00 | 80 | |
| 20260506213606 | 21 | 162 | 0.0 | 3.2 | 0.00 | 0.00 | 0.00 | 81 | |
| 20260506213103 | 21 | 80 | 1.6 | 3.2 | 0.00 | 0.00 | 0.00 | 81 | |
| 20260506212600 | 21 | 64 | 1.6 | 3.2 | 0.00 | 0.00 | 0.00 | 81 | |
| 20260506212055 | 21 | 118 | 0.0 | 3.2 | 0.00 | 0.00 | 0.00 | 81 | |
| 20260506211551 | 21 | 196 | 0.0 | 3.2 | 0.00 | 0.00 | 0.00 | 81 | |
| 20260506211048 | 21 | 167 | 4.8 | 4.8 | 0.00 | 0.00 | 0.00 | 80 | |
| 20260506210544 | 21 | 109 | 1.6 | 3.2 | 0.00 | 0.00 | 0.00 | 81 | |
| 20260506210041 | 21 | 193 | 3.2 | 4.8 | 0.00 | 0.00 | 0.00 | 80 | |
| 20260506205538 | 21 | 118 | 3.2 | 4.8 | 0.00 | 0.00 | 0.00 | 81 | |
| 20260506205033 | 21 | 148 | 1.6 | 6.4 | 0.00 | 0.00 | 0.00 | 81 | |
| 20260506204532 | 21 | 24 | 0.0 | 3.2 | 0.00 | 0.00 | 0.00 | 81 | |
| 20260506204028 | 21 | 140 | 6.4 | 6.4 | 0.00 | 0.00 | 0.00 | 80 | |
| 20260506203527 | 21 | 174 | 3.2 | 6.4 | 0.00 | 0.00 | 0.00 | 79 | |
| 20260506203023 | 21 | 173 | 4.8 | 4.8 | 0.00 | 0.00 | 0.00 | 79 | |
| 20260506202520 | 21 | 100 | 3.2 | 3.2 | 0.00 | 0.00 | 0.00 | 82 | |
| 20260506202016 | 21 | 184 | 4.8 | 12.9 | 0.00 | 0.00 | 0.00 | 80 | |
| 20260506201514 | 21 | 100 | 0.0 | 4.8 | 0.00 | 0.00 | 0.00 | 78 | |
| 20260506201010 | 21 | 85 | 3.2 | 6.4 | 0.00 | 0.00 | 0.00 | 80 | |
| 20260506200507 | 21 | 19 | 1.6 | 3.2 | 0.00 | 0.00 | 0.00 | 81 | |
| 20260506200003 | 21 | 215 | 0.0 | 6.4 | 0.00 | 0.00 | 0.00 | 80 | |
| 20260506195500 | 21 | 66 | 3.2 | 3.2 | 0.00 | 0.00 | 0.00 | 82 | |
| 20260506194956 | 21 | 89 | 0.0 | 3.2 | 0.00 | 0.00 | 0.00 | 82 | |
| 20260506194454 | 21 | 42 | 3.2 | 3.2 | 0.00 | 0.00 | 0.00 | 82 | |
| 20260506193945 | 21 | 64 | 1.6 | 3.2 | 0.00 | 0.00 | 0.00 | 82 | |
| 20260506193442 | 21 | 126 | 6.4 | 6.4 | 0.00 | 0.00 | 0.00 | 80 | |
| 20260506192939 | 21 | 33 | 3.2 | 3.2 | 0.00 | 0.00 | 0.00 | 82 | |
| 20260506192436 | 20 | 19 | 3.2 | 4.8 | 0.00 | 0.00 | 0.00 | 82 | |
| 20260506191932 | 20 | 62 | 0.0 | 3.2 | 0.00 | 0.00 | 0.00 | 83 | |
| 20260506191429 | 20 | 68 | 3.2 | 3.2 | 0.00 | 0.00 | 0.00 | 83 | |
| 20260506190925 | 20 | 98 | 1.6 | 4.8 | 0.00 | 0.00 | 0.00 | 82 | |
| 20260506190421 | 20 | 119 | 0.0 | 4.8 | 0.00 | 0.00 | 0.00 | 83 | |
| 20260506185913 | 20 | 15 | 0.0 | 4.8 | 0.00 | 0.00 | 0.00 | 83 | |
| 20260506185410 | 20 | 119 | 1.6 | 3.2 | 0.00 | 0.00 | 0.00 | 84 | |
| 20260506184908 | 20 | 345 | 1.6 | 4.8 | 0.00 | 0.00 | 0.00 | 83 | |
| 20260506184404 | 20 | 103 | 0.0 | 6.4 | 0.00 | 0.00 | 0.00 | 83 | |
| 20260506183902 | 20 | 55 | 3.2 | 8.0 | 0.00 | 0.00 | 0.00 | 84 | |
| 20260506183357 | 20 | 48 | 3.2 | 4.8 | 0.00 | 0.00 | 0.00 | 84 | |
| 20260506182854 | 20 | 67 | 3.2 | 9.7 | 0.00 | 0.00 | 0.00 | 84 | |
| 20260506182351 | 20 | 350 | 3.2 | 8.0 | 0.00 | 0.00 | 0.00 | 83 | |
| 20260506181848 | 20 | 153 | 4.8 | 11.3 | 0.00 | 0.00 | 0.00 | 82 | |
| 20260506181346 | 20 | 119 | 0.0 | 3.2 | 0.00 | 0.00 | 0.00 | 85 | |
| 20260506180843 | 20 | 96 | 3.2 | 6.4 | 0.00 | 0.00 | 0.00 | 86 | |
| 20260506180339 | 19 | 179 | 6.4 | 16.1 | 0.00 | 0.00 | 0.00 | 83 | |
| 20260506175836 | 19 | 27 | 3.2 | 4.8 | 0.00 | 0.00 | 0.00 | 87 | |
| 20260506175332 | 19 | 10 | 3.2 | 4.8 | 0.00 | 0.00 | 0.00 | 87 | |
| 20260506174830 | 18 | 57 | 3.2 | 3.2 | 0.00 | 0.00 | 0.00 | 87 | |
| 20260506174327 | 18 | 75 | 3.2 | 4.8 | 0.00 | 0.00 | 0.00 | 87 | |
| 20260506173825 | 18 | 80 | 1.6 | 8.0 | 0.00 | 0.00 | 0.00 | 88 | |
| 20260506173321 | 18 | 38 | 6.4 | 6.4 | 0.00 | 0.00 | 0.00 | 88 | |
| 20260506172818 | 18 | 103 | 3.2 | 4.8 | 0.00 | 0.00 | 0.00 | 89 | |
| 20260506172315 | 18 | 148 | 3.2 | 6.4 | 0.00 | 0.00 | 0.00 | 90 | |
| 20260506171812 | 18 | 182 | 4.8 | 6.4 | 0.00 | 0.00 | 0.00 | 90 | |
| 20260506171309 | 18 | 30 | 3.2 | 4.8 | 0.00 | 0.00 | 0.00 | 91 | |
| 20260506170807 | 18 | 76 | 1.6 | 4.8 | 0.00 | 0.00 | 0.00 | 91 | |
| 20260506170303 | 17 | 92 | 4.8 | 9.7 | 0.00 | 0.00 | 0.00 | 92 | |
| 20260506165802 | 17 | 45 | 4.8 | 4.8 | 0.00 | 0.00 | 0.00 | 93 | |
| 20260506165259 | 17 | 120 | 3.2 | 3.2 | 0.00 | 0.00 | 0.00 | 94 | |
| 20260506164756 | 17 | 101 | 3.2 | 4.8 | 0.00 | 0.00 | 0.00 | 94 | |
| 20260506164252 | 17 | 88 | 3.2 | 4.8 | 0.00 | 0.00 | 0.00 | 93 | |
| 20260506163749 | 17 | 88 | 3.2 | 4.8 | 0.00 | 0.00 | 0.00 | 93 | |
| 20260506163244 | 17 | 66 | 1.6 | 6.4 | 0.00 | 0.00 | 0.00 | 94 | |
| 20260506162740 | 17 | 122 | 4.8 | 6.4 | 0.00 | 0.00 | 0.00 | 95 | |
| 20260506162238 | 17 | 124 | 3.2 | 4.8 | 0.00 | 0.00 | 0.00 | 96 | |
| 20260506161735 | 16 | 110 | 3.2 | 4.8 | 0.00 | 0.00 | 0.00 | 97 | |
| 20260506161232 | 16 | 113 | 3.2 | 4.8 | 0.00 | 0.00 | 0.00 | 97 | |
| 20260506160730 | 16 | 85 | 3.2 | 3.2 | 0.00 | 0.00 | 0.00 | 97 | |
| 20260506160226 | 16 | 117 | 3.2 | 3.2 | 0.00 | 0.00 | 0.00 | 97 | |
| 20260506155725 | 16 | 110 | 3.2 | 4.8 | 0.00 | 0.00 | 0.00 | 97 | |
| 20260506155221 | 16 | 103 | 4.8 | 4.8 | 0.00 | 0.00 | 0.00 | 96 | |
| 20260506153329 | 16 | 102 | 3.2 | 4.8 | 0.00 | 0.00 | 0.00 | 96 | |
| 20260506152826 | 16 | 69 | 3.2 | 4.8 | 0.00 | 0.00 | 0.00 | 96 | |
| 20260506152323 | 16 | 78 | 0.0 | 3.2 | 0.00 | 0.00 | 0.00 | 96 | |
| 20260506151822 | 16 | 86 | 1.6 | 4.8 | 0.00 | 0.00 | 0.00 | 95 | |
| 20260506151318 | 16 | 66 | 3.2 | 4.8 | 0.00 | 0.00 | 0.00 | 95 | |
| 20260506150815 | 16 | 125 | 3.2 | 4.8 | 0.00 | 0.00 | 0.00 | 95 | |
| 20260506150312 | 16 | 57 | 3.2 | 4.8 | 0.00 | 0.00 | 0.00 | 95 | |
| 20260506145809 | 16 | 114 | 3.2 | 8.0 | 0.00 | 0.00 | 0.00 | 94 | |
| 20260506145306 | 16 | 87 | 1.6 | 4.8 | 0.00 | 0.00 | 0.00 | 94 | |
| 20260506144803 | 16 | 110 | 3.2 | 4.8 | 0.00 | 0.00 | 0.00 | 93 | |
| 20260506144259 | 16 | 100 | 3.2 | 3.2 | 0.00 | 0.00 | 0.00 | 92 | |
| 20260506143758 | 16 | 84 | 1.6 | 3.2 | 0.00 | 0.00 | 0.00 | 92 | |
| 20260506143254 | 16 | 95 | 3.2 | 3.2 | 0.00 | 0.00 | 0.00 | 92 | |
| 20260506142753 | 16 | 83 | 3.2 | 3.2 | 0.00 | 0.00 | 0.00 | 92 | |
| 20260506142250 | 16 | 53 | 3.2 | 4.8 | 0.00 | 0.00 | 0.00 | 91 | |
| 20260506141749 | 16 | 115 | 3.2 | 3.2 | 0.00 | 0.00 | 0.00 | 91 | |
| 20260506141246 | 16 | 89 | 1.6 | 3.2 | 0.00 | 0.00 | 0.00 | 91 | |
| 20260506140744 | 17 | 96 | 3.2 | 3.2 | 0.00 | 0.00 | 0.00 | 91 | |
| 20260506140241 | 17 | 89 | 1.6 | 3.2 | 0.00 | 0.00 | 0.00 | 90 | |
| 20260506135738 | 17 | 81 | 1.6 | 3.2 | 0.00 | 0.00 | 0.00 | 89 | |
| 20260506135234 | 17 | 51 | 1.6 | 3.2 | 0.00 | 0.00 | 0.00 | 89 | |
| 20260506134731 | 17 | 80 | 1.6 | 3.2 | 0.00 | 0.00 | 0.00 | 89 | |
| 20260506134227 | 17 | 98 | 3.2 | 3.2 | 0.00 | 0.00 | 0.00 | 89 | |
| 20260506133724 | 17 | 89 | 1.6 | 3.2 | 0.00 | 0.00 | 0.00 | 89 | |
| 20260506133221 | 17 | 88 | 1.6 | 3.2 | 0.00 | 0.00 | 0.00 | 88 | |
| 20260506132718 | 17 | 93 | 3.2 | 3.2 | 0.00 | 0.00 | 0.00 | 88 | |
| 20260506132215 | 17 | 64 | 3.2 | 4.8 | 0.00 | 0.00 | 0.00 | 87 | |
| 20260506131713 | 17 | 97 | 3.2 | 3.2 | 0.00 | 0.00 | 0.00 | 87 | |
| 20260506131209 | 17 | 104 | 3.2 | 4.8 | 0.00 | 0.00 | 0.00 | 86 | |
| 20260506130706 | 17 | 77 | 0.0 | 3.2 | 0.00 | 0.00 | 0.00 | 86 | |
| 20260506130203 | 17 | 91 | 3.2 | 4.8 | 0.00 | 0.00 | 0.00 | 87 | |
| 20260506125701 | 17 | 95 | 3.2 | 3.2 | 0.00 | 0.00 | 0.00 | 87 | |
| 20260506125158 | 17 | 100 | 3.2 | 4.8 | 0.00 | 0.00 | 0.00 | 87 | |
| 20260506124656 | 17 | 53 | 1.6 | 4.8 | 0.00 | 0.00 | 0.00 | 88 | |
| 20260506124154 | 17 | 98 | 1.6 | 3.2 | 0.00 | 0.00 | 0.00 | 88 | |
| 20260506123651 | 17 | 93 | 1.6 | 3.2 | 0.00 | 0.00 | 0.00 | 88 | |
| 20260506123150 | 17 | 101 | 3.2 | 3.2 | 0.00 | 0.00 | 0.00 | 88 | |
| 20260506122646 | 17 | 86 | 3.2 | 3.2 | 0.00 | 0.00 | 0.00 | 88 | |
| 20260506122144 | 17 | 100 | 3.2 | 4.8 | 0.00 | 0.00 | 0.00 | 89 | |
| 20260506121641 | 17 | 89 | 3.2 | 4.8 | 0.00 | 0.00 | 0.00 | 89 | |
| 20260506121137 | 16 | 88 | 3.2 | 3.2 | 0.00 | 0.00 | 0.00 | 89 | |
| 20260506120636 | 17 | 99 | 3.2 | 4.8 | 0.00 | 0.00 | 0.00 | 90 | |
| 20260506120132 | 17 | 124 | 4.8 | 4.8 | 0.00 | 0.00 | 0.00 | 89 | |
| 20260506115631 | 17 | 83 | 3.2 | 3.2 | 0.00 | 0.00 | 0.00 | 89 | |
| 20260506115129 | 17 | 105 | 3.2 | 6.4 | 0.00 | 0.00 | 0.00 | 89 | |
| 20260506114626 | 17 | 95 | 3.2 | 4.8 | 0.00 | 0.00 | 0.00 | 89 | |
| 20260506114124 | 17 | 95 | 3.2 | 4.8 | 0.00 | 0.00 | 0.00 | 90 | |
| 20260506113622 | 17 | 86 | 4.8 | 4.8 | 0.00 | 0.00 | 0.00 | 90 | |
| 20260506113119 | 17 | 103 | 1.6 | 4.8 | 0.00 | 0.00 | 0.00 | 90 | |
| 20260506112615 | 16 | 93 | 3.2 | 4.8 | 0.00 | 0.00 | 0.00 | 90 | |
| 20260506112113 | 16 | 100 | 3.2 | 3.2 | 0.00 | 0.00 | 0.00 | 91 | |
| 20260506111610 | 16 | 72 | 3.2 | 3.2 | 0.00 | 0.00 | 0.00 | 91 | |
| 20260506111107 | 16 | 111 | 3.2 | 3.2 | 0.00 | 0.00 | 0.00 | 91 | |
| 20260506110605 | 16 | 103 | 3.2 | 6.4 | 0.00 | 0.00 | 0.00 | 91 | |
| 20260506105558 | 16 | 99 | 3.2 | 4.8 | 0.00 | 0.00 | 0.00 | 90 | |
| 20260506105055 | 16 | 96 | 3.2 | 4.8 | 0.00 | 0.00 | 0.00 | 90 | |
| 20260506104554 | 16 | 109 | 3.2 | 4.8 | 0.00 | 0.00 | 0.00 | 90 | |
| 20260506104051 | 16 | 108 | 4.8 | 6.4 | 0.00 | 0.00 | 0.00 | 91 | |
| 20260506103548 | 16 | 97 | 3.2 | 3.2 | 0.00 | 0.00 | 0.00 | 91 | |
| 20260506103045 | 16 | 108 | 3.2 | 3.2 | 0.00 | 0.00 | 0.00 | 92 | |
| 20260506102543 | 16 | 111 | 0.0 | 3.2 | 0.00 | 0.00 | 0.00 | 92 | |
| 20260506102040 | 16 | 100 | 3.2 | 3.2 | 0.00 | 0.00 | 0.00 | 92 | |
| 20260506101537 | 16 | 75 | 3.2 | 3.2 | 0.00 | 0.00 | 0.00 | 92 | |
| 20260506101034 | 16 | 69 | 3.2 | 4.8 | 0.00 | 0.00 | 0.00 | 92 | |
| 20260506100532 | 16 | 63 | 3.2 | 4.8 | 0.00 | 0.00 | 0.00 | 92 | |
| 20260506100030 | 16 | 77 | 3.2 | 3.2 | 0.00 | 0.00 | 0.00 | 92 | |
| 20260506095529 | 16 | 110 | 4.8 | 4.8 | 0.00 | 0.00 | 0.00 | 92 | |
| 20260506095024 | 16 | 87 | 1.6 | 3.2 | 0.00 | 0.00 | 0.00 | 92 | |
| 20260506094522 | 16 | 91 | 4.8 | 4.8 | 0.00 | 0.00 | 0.00 | 92 | |
| 20260506094020 | 16 | 84 | 3.2 | 4.8 | 0.00 | 0.00 | 0.00 | 92 | |
| 20260506093518 | 16 | 107 | 3.2 | 3.2 | 0.00 | 0.00 | 0.00 | 92 | |
| 20260506093015 | 16 | 56 | 3.2 | 3.2 | 0.00 | 0.00 | 0.00 | 92 | |
| 20260506092513 | 16 | 118 | 3.2 | 4.8 | 0.00 | 0.00 | 0.00 | 92 | |
| 20260506092009 | 16 | 79 | 3.2 | 3.2 | 0.00 | 0.00 | 0.00 | 91 | |
| 20260506091508 | 16 | 77 | 3.2 | 4.8 | 0.00 | 0.00 | 0.00 | 91 | |
| 20260506091004 | 16 | 72 | 0.0 | 4.8 | 0.00 | 0.00 | 0.00 | 91 | |
| 20260506090503 | 16 | 84 | 1.6 | 3.2 | 0.00 | 0.00 | 0.00 | 91 | |
| 20260506085958 | 16 | 115 | 3.2 | 8.0 | 0.00 | 0.00 | 0.00 | 91 | |
| 20260506085455 | 16 | 108 | 4.8 | 4.8 | 0.00 | 0.00 | 0.00 | 91 | |
| 20260506084952 | 16 | 84 | 3.2 | 3.2 | 0.00 | 0.00 | 0.00 | 91 | |
| 20260506084449 | 16 | 75 | 3.2 | 4.8 | 0.00 | 0.00 | 0.00 | 91 | |
| 20260506083945 | 16 | 121 | 3.2 | 3.2 | 0.00 | 0.00 | 0.00 | 91 | |
| 20260506083443 | 16 | 112 | 3.2 | 4.8 | 0.00 | 0.00 | 0.00 | 91 | |
| 20260506082940 | 16 | 127 | 1.6 | 4.8 | 0.00 | 0.00 | 0.00 | 90 | |
| 20260506082437 | 16 | 95 | 1.6 | 4.8 | 0.00 | 0.00 | 0.00 | 90 | |
| 20260506081932 | 16 | 118 | 4.8 | 4.8 | 0.00 | 0.00 | 0.00 | 90 | |
| 20260506081431 | 16 | 132 | 3.2 | 6.4 | 0.00 | 0.00 | 0.00 | 90 | |
| 20260506080928 | 16 | 115 | 3.2 | 4.8 | 0.00 | 0.00 | 0.00 | 92 | |
| 20260506080425 | 16 | 68 | 3.2 | 4.8 | 0.00 | 0.00 | 0.00 | 92 | |
| 20260506073409 | 16 | 96 | 1.6 | 3.2 | 0.00 | 0.00 | 0.00 | 91 | |
| 20260506072906 | 16 | 93 | 1.6 | 3.2 | 0.00 | 0.00 | 0.00 | 91 | |
| 20260506072403 | 16 | 92 | 1.6 | 3.2 | 0.00 | 0.00 | 0.00 | 91 | |
| 20260506071900 | 16 | 95 | 3.2 | 3.2 | 0.00 | 0.00 | 0.00 | 91 | |
| 20260506071359 | 16 | 89 | 1.6 | 3.2 | 0.00 | 0.00 | 0.00 | 91 | |
| 20260506070855 | 16 | 89 | 1.6 | 3.2 | 0.00 | 0.00 | 0.00 | 91 |